sensor_id;sensor_type;location;lat;lon;timestamp;temperature;humidity
45311;SHT31;68264;51.540;5.854;2023-08-01T00:25:14;16.7;95.6
45311;SHT31;68264;51.540;5.854;2023-08-01T00:53:12;16.6;95.4
45311;SHT31;68264;51.540;5.854;2023-08-01T01:07:40;16.6;95.3
45311;SHT31;68264;51.540;5.854;2023-08-01T01:22:29;16.4;95.3
45311;SHT31;68264;51.540;5.854;2023-08-01T01:36:48;16.2;95.0
45311;SHT31;68264;51.540;5.854;2023-08-01T01:51:48;16.0;95.2
45311;SHT31;68264;51.540;5.854;2023-08-01T02:22:49;15.8;95.2
45311;SHT31;68264;51.540;5.854;2023-08-01T02:38:21;15.6;95.4
45311;SHT31;68264;51.540;5.854;2023-08-01T02:53:51;15.5;95.5
45311;SHT31;68264;51.540;5.854;2023-08-01T03:08:51;15.5;95.6
45311;SHT31;68264;51.540;5.854;2023-08-01T03:25:24;15.5;95.4
45311;SHT31;68264;51.540;5.854;2023-08-01T03:40:54;15.5;95.6
45311;SHT31;68264;51.540;5.854;2023-08-01T03:55:22;15.5;95.3
45311;SHT31;68264;51.540;5.854;2023-08-01T04:10:10;15.6;95.3
45311;SHT31;68264;51.540;5.854;2023-08-01T04:24:29;15.6;95.2
45311;SHT31;68264;51.540;5.854;2023-08-01T04:38:28;15.6;95.3
45311;SHT31;68264;51.540;5.854;2023-08-01T04:52:57;15.7;94.8
45311;SHT31;68264;51.540;5.854;2023-08-01T05:07:45;15.8;94.9
45311;SHT31;68264;51.540;5.854;2023-08-01T05:23:05;15.8;94.4
45311;SHT31;68264;51.540;5.854;2023-08-01T05:38:05;15.7;94.7
45311;SHT31;68264;51.540;5.854;2023-08-01T05:52:04;15.8;95.1
45311;SHT31;68264;51.540;5.854;2023-08-01T06:06:03;16.0;94.9
45311;SHT31;68264;51.540;5.854;2023-08-01T06:20:31;16.1;94.7
45311;SHT31;68264;51.540;5.854;2023-08-01T06:35:51;16.2;93.4
45311;SHT31;68264;51.540;5.854;2023-08-01T06:51:52;16.4;92.4
45311;SHT31;68264;51.540;5.854;2023-08-01T07:06:52;16.8;90.6
45311;SHT31;68264;51.540;5.854;2023-08-01T07:20:51;16.8;90.6
45311;SHT31;68264;51.540;5.854;2023-08-01T07:35:19;17.1;89.9
45311;SHT31;68264;51.540;5.854;2023-08-01T07:50:07;17.6;87.3
45311;SHT31;68264;51.540;5.854;2023-08-01T08:04:56;18.0;85.1
45311;SHT31;68264;51.540;5.854;2023-08-01T08:19:15;18.2;85.0
45311;SHT31;68264;51.540;5.854;2023-08-01T08:33:43;18.2;81.2
45311;SHT31;68264;51.540;5.854;2023-08-01T08:48:02;18.3;82.8
45311;SHT31;68264;51.540;5.854;2023-08-01T09:02:01;18.4;80.8
45311;SHT31;68264;51.540;5.854;2023-08-01T09:16:00;18.3;81.4
45311;SHT31;68264;51.540;5.854;2023-08-01T09:29:59;17.1;88.3
45311;SHT31;68264;51.540;5.854;2023-08-01T09:43:58;16.7;90.6
45311;SHT31;68264;51.540;5.854;2023-08-01T09:57:57;17.4;89.9
45311;SHT31;68264;51.540;5.854;2023-08-01T10:11:56;17.3;87.9
45311;SHT31;68264;51.540;5.854;2023-08-01T10:25:55;16.7;87.8
45311;SHT31;68264;51.540;5.854;2023-08-01T10:39:55;16.7;91.2
45311;SHT31;68264;51.540;5.854;2023-08-01T10:54:23;18.2;86.6
45311;SHT31;68264;51.540;5.854;2023-08-01T11:08:42;18.2;84.6
45311;SHT31;68264;51.540;5.854;2023-08-01T11:22:41;18.3;83.6
45311;SHT31;68264;51.540;5.854;2023-08-01T11:36:40;19.0;81.0
45311;SHT31;68264;51.540;5.854;2023-08-01T11:50:39;18.5;78.4
45311;SHT31;68264;51.540;5.854;2023-08-01T12:04:38;18.5;79.6
45311;SHT31;68264;51.540;5.854;2023-08-01T12:19:06;18.5;79.3
45311;SHT31;68264;51.540;5.854;2023-08-01T12:33:25;19.2;73.0
45311;SHT31;68264;51.540;5.854;2023-08-01T12:47:24;19.9;68.2
45311;SHT31;68264;51.540;5.854;2023-08-01T13:01:53;20.6;67.9
45311;SHT31;68264;51.540;5.854;2023-08-01T13:16:12;20.8;62.2
45311;SHT31;68264;51.540;5.854;2023-08-01T13:34:56;20.9;65.7
45311;SHT31;68264;51.540;5.854;2023-08-01T13:54:39;21.0;65.2
45311;SHT31;68264;51.540;5.854;2023-08-01T14:09:39;20.6;62.5
45311;SHT31;68264;51.540;5.854;2023-08-01T14:23:38;20.7;64.4
45311;SHT31;68264;51.540;5.854;2023-08-01T14:37:37;20.8;61.2
45311;SHT31;68264;51.540;5.854;2023-08-01T14:51:36;21.2;64.3
45311;SHT31;68264;51.540;5.854;2023-08-01T15:06:36;20.4;62.8
45311;SHT31;68264;51.540;5.854;2023-08-01T15:22:05;21.3;63.4
45311;SHT31;68264;51.540;5.854;2023-08-01T15:36:53;20.3;64.1
45311;SHT31;68264;51.540;5.854;2023-08-01T15:51:41;20.7;65.3
45311;SHT31;68264;51.540;5.854;2023-08-01T16:06:01;20.7;62.2
45311;SHT31;68264;51.540;5.854;2023-08-01T16:20:29;20.4;61.8
45311;SHT31;68264;51.540;5.854;2023-08-01T16:34:48;20.6;64.1
45311;SHT31;68264;51.540;5.854;2023-08-01T16:48:47;20.7;63.8
45311;SHT31;68264;51.540;5.854;2023-08-01T17:02:46;20.2;64.6
45311;SHT31;68264;51.540;5.854;2023-08-01T17:16:45;20.1;65.3
45311;SHT31;68264;51.540;5.854;2023-08-01T17:31:13;19.4;68.6
45311;SHT31;68264;51.540;5.854;2023-08-01T17:45:33;19.2;68.9
45311;SHT31;68264;51.540;5.854;2023-08-01T18:00:01;19.1;70.0
45311;SHT31;68264;51.540;5.854;2023-08-01T18:14:20;18.9;70.9
45311;SHT31;68264;51.540;5.854;2023-08-01T18:28:19;18.7;71.9
45311;SHT31;68264;51.540;5.854;2023-08-01T18:42:18;18.5;70.9
45311;SHT31;68264;51.540;5.854;2023-08-01T18:56:46;18.4;70.8
45311;SHT31;68264;51.540;5.854;2023-08-01T19:11:05;18.2;71.9
45311;SHT31;68264;51.540;5.854;2023-08-01T19:25:04;18.1;72.8
45311;SHT31;68264;51.540;5.854;2023-08-01T19:39:03;17.9;73.2
45311;SHT31;68264;51.540;5.854;2023-08-01T19:53:02;17.9;73.6
45311;SHT31;68264;51.540;5.854;2023-08-01T20:07:01;17.9;73.6
45311;SHT31;68264;51.540;5.854;2023-08-01T20:21:00;17.7;75.2
45311;SHT31;68264;51.540;5.854;2023-08-01T20:34:59;17.2;77.3
45311;SHT31;68264;51.540;5.854;2023-08-01T20:48:58;16.8;79.6
45311;SHT31;68264;51.540;5.854;2023-08-01T21:02:58;16.4;81.8
45311;SHT31;68264;51.540;5.854;2023-08-01T21:17:58;16.3;82.9
45311;SHT31;68264;51.540;5.854;2023-08-01T21:32:57;16.1;84.5
45311;SHT31;68264;51.540;5.854;2023-08-01T21:47:25;16.0;85.3
45311;SHT31;68264;51.540;5.854;2023-08-01T22:01:45;15.9;86.0
45311;SHT31;68264;51.540;5.854;2023-08-01T22:16:13;15.7;87.3
45311;SHT31;68264;51.540;5.854;2023-08-01T22:31:33;15.6;87.9
45311;SHT31;68264;51.540;5.854;2023-08-01T22:46:33;15.5;88.7
45311;SHT31;68264;51.540;5.854;2023-08-01T23:01:01;15.5;88.9
45311;SHT31;68264;51.540;5.854;2023-08-01T23:15:20;15.6;88.6
45311;SHT31;68264;51.540;5.854;2023-08-01T23:29:19;15.7;88.6
45311;SHT31;68264;51.540;5.854;2023-08-01T23:43:18;15.6;88.9
45311;SHT31;68264;51.540;5.854;2023-08-01T23:57:17;15.6;88.9
